Latest Weather Observations for Cape Nelson

IDV60801

Issued at 11:32 am EST Wednesday 29 June 2016 (issued every 30 minutes, with the page automatically refreshed every 10 minutes)

About weather observations | Map of weather stations | Latest weather observations for VIC | Other Formats
Station Details ID: 090184 Name: CAPE NELSON LIGHTHOUSE Lat: -38.43 Lon: 141.54 Height: 45.4 m
Data from the previous 72 hours. | See also: Recent months at Cape Nelson
Date/Time
EST
Temp
°C
App
Temp
°C
Dew
Point
°C
Rel
Hum
%
Delta-T
°C
Wind Press
QNH
hPa
Press
MSL
hPa
Rain since
9am
mm
Dir  Spd
km/h
Gust
km/h
Spd
kts
Gust
kts
29/11:30am 12.8 7.8 7.9 72 2.4 N 24 35 13 19 1022.2 1022.3 0.0
29/11:00am 11.5 7.1 7.2 75 2.1 N 20 32 11 17 1022.7 1022.8 0.0
29/10:30am 10.9 6.1 7.4 79 1.7 N 22 35 12 19 1023.0 1023.1 0.0
29/10:00am 9.8 4.9 7.1 83 1.3 N 22 33 12 18 1023.3 1023.4 0.0
29/09:30am 9.2 3.9 7.0 86 1.0 N 24 33 13 18 1023.4 1023.5 0.0
29/09:00am 9.0 3.8 7.1 88 0.9 N 24 35 13 19 1023.4 1023.5 2.6
29/08:30am 8.6 3.8 7.2 91 0.7 NNW 22 33 12 18 1023.6 1023.7 2.6
29/08:00am 8.5 3.3 7.3 92 0.6 NNW 24 39 13 21 1023.6 1023.7 2.6
29/07:30am 8.7 4.0 7.6 93 0.5 NNW 22 37 12 20 1023.5 1023.6 2.6
29/07:00am 9.1 4.8 8.0 93 0.5 N 20 28 11 15 1023.7 1023.8 2.6
29/06:30am 9.4 5.2 8.3 93 0.5 NNW 20 30 11 16 1023.6 1023.7 2.6
29/06:00am 9.8 6.3 8.7 93 0.5 NNW 17 24 9 13 1023.6 1023.7 2.6
29/05:30am 10.0 6.2 9.1 94 0.4 NNW 19 24 10 13 1023.4 1023.5 2.6
29/05:00am 9.9 5.1 9.0 94 0.4 NNW 24 35 13 19 1023.2 1023.3 2.6
29/04:30am 9.7 5.6 8.8 94 0.4 N 20 28 11 15 1023.1 1023.2 2.6
29/04:00am 9.9 5.5 9.0 94 0.4 NNW 22 30 12 16 1023.2 1023.3 2.6
29/03:30am 10.1 5.7 9.0 93 0.5 NNW 22 32 12 17 1023.4 1023.5 2.6
29/03:00am 10.5 6.3 9.6 94 0.4 NNW 22 32 12 17 1023.4 1023.5 2.6
29/02:30am 10.2 5.9 9.3 94 0.4 NNW 22 33 12 18 1023.3 1023.4 2.6
29/02:00am 10.4 7.1 9.5 94 0.4 NNW 17 20 9 11 1023.6 1023.7 2.6
29/01:30am 10.5 6.6 9.6 94 0.5 NNW 20 32 11 17 1023.8 1023.9 2.6
29/01:00am 9.9 6.4 8.8 93 0.5 N 17 22 9 12 1023.5 1023.6 2.6
29/12:30am 10.1 6.7 9.0 93 0.5 NNW 17 24 9 13 1023.8 1023.9 2.6
29/12:00am 10.4 6.7 9.3 93 0.5 NNW 19 22 10 12 1023.9 1024.0 2.6
 
Date/Time
EST
Temp
°C
App
Temp
°C
Dew
Point
°C
Rel
Hum
%
Delta-T
°C
Wind Press
QNH
hPa
Press
MSL
hPa
Rain since
9am
mm
Dir  Spd
km/h
Gust
km/h
Spd
kts
Gust
kts
28/11:30pm 10.5 7.2 9.4 93 0.6 N 17 24 9 13 1024.0 1024.1 2.6
28/11:00pm 10.4 7.0 9.3 93 0.5 N 17 24 9 13 1023.9 1024.0 2.6
28/10:30pm 10.7 8.2 9.6 93 0.6 N 13 19 7 10 1023.8 1023.9 2.6
28/10:00pm 11.3 7.8 10.2 93 0.6 NNW 19 28 10 15 1023.9 1024.0 2.6
28/09:30pm 11.4 7.9 10.3 93 0.6 NNW 19 24 10 13 1024.0 1024.1 2.6
28/09:00pm 11.5 8.1 10.4 93 0.6 NNW 19 28 10 15 1024.0 1024.1 2.4
28/08:30pm 11.3 7.7 10.0 92 0.7 NNW 19 30 10 16 1023.9 1024.0 2.4
28/08:00pm 11.7 7.7 10.3 91 0.7 NW 22 32 12 17 1023.8 1023.9 2.4
28/07:30pm 11.8 7.3 10.2 90 0.8 NW 24 35 13 19 1023.5 1023.6 1.0
28/07:00pm 12.3 7.9 10.5 89 0.9 NW 24 39 13 21 1023.4 1023.5 1.0
28/06:30pm 12.7 8.4 10.9 89 0.9 NW 24 33 13 18 1022.9 1023.0 0.8
28/06:00pm 12.5 8.2 10.7 89 0.9 NW 24 32 13 17 1022.7 1022.8 0.8
28/05:30pm 12.6 7.9 10.7 88 1.0 NW 26 35 14 19 1022.5 1022.6 0.8
28/05:00pm 12.7 7.6 10.6 87 1.1 NW 28 35 15 19 1022.4 1022.5 0.8
28/04:30pm 13.0 7.6 10.9 87 1.1 NW 30 39 16 21 1022.1 1022.2 0.8
28/04:00pm 13.0 8.4 11.1 88 1.0 WNW 26 39 14 21 1022.0 1022.1 0.8
28/03:30pm 13.9 7.9 10.7 81 1.7 NW 33 54 18 29 1022.0 1022.1 0.2
28/03:29pm 14.0 8.0 10.8 81 1.7 NW 33 54 18 29 1022.0 1022.1 0.0
28/03:00pm 14.7 9.3 10.9 78 2.0 NW 30 41 16 22 1021.6 1021.7 0.0
28/02:30pm 15.1 9.4 11.3 78 2.0 NW 32 43 17 23 1021.6 1021.7 0.0
28/02:00pm 15.5 10.7 11.7 78 2.0 NW 28 37 15 20 1021.7 1021.8 0.0
28/01:30pm 14.6 9.2 11.0 79 1.9 NW 30 41 16 22 1021.9 1022.0 0.0
28/01:00pm 16.0 11.3 12.0 77 2.2 NW 28 39 15 21 1022.1 1022.2 0.0
28/12:30pm 15.6 10.5 12.0 79 2.0 NW 30 41 16 22 1022.1 1022.2 0.0
28/12:00pm 14.7 9.9 11.5 81 1.7 NW 28 39 15 21 1022.4 1022.5 0.0
28/11:30am 14.5 9.8 12.0 85 1.4 NW 28 39 15 21 1022.6 1022.7 0.0
28/11:00am 13.7 8.9 11.8 88 1.0 NW 28 39 15 21 1022.6 1022.7 0.0
28/10:30am 12.5 8.2 10.9 90 0.8 NW 24 37 13 20 1022.4 1022.5 0.0
28/10:00am 12.2 7.2 10.8 91 0.7 NW 28 41 15 22 1022.3 1022.4 0.0
28/09:30am 11.7 6.2 10.6 93 0.6 NW 30 37 16 20 1022.0 1022.1 0.0
28/09:00am 11.1 5.9 10.2 94 0.5 NW 28 39 15 21 1021.8 1021.9 1.0
28/08:30am 10.8 6.3 9.9 94 0.5 NW 24 32 13 17 1021.4 1021.5 1.0
28/08:00am 10.4 6.1 9.5 94 0.4 NNW 22 32 12 17 1021.0 1021.1 1.0
28/07:30am 10.2 6.3 9.3 94 0.4 NNW 20 30 11 16 1020.7 1020.8 1.0
28/07:00am 10.3 4.8 9.2 93 0.5 NW 28 39 15 21 1020.4 1020.5 1.0
28/06:30am 10.4 4.9 9.3 93 0.5 NW 28 39 15 21 1020.1 1020.2 1.0
28/06:00am 10.2 5.8 9.1 93 0.5 NNW 22 33 12 18 1019.8 1019.9 1.0
28/05:30am 10.3 6.0 9.2 93 0.5 NNW 22 32 12 17 1019.4 1019.5 1.0
28/05:00am 10.4 5.7 9.3 93 0.5 NW 24 37 13 20 1019.5 1019.6 1.0
28/04:30am 9.9 5.1 8.7 92 0.6 NNW 24 37 13 20 1019.3 1019.4 1.0
28/04:00am 9.7 5.2 8.5 92 0.6 NNW 22 37 12 20 1019.3 1019.4 1.0
28/03:30am 9.6 4.7 8.4 92 0.6 NNW 24 32 13 17 1019.5 1019.6 1.0
28/03:00am 9.7 5.5 8.3 91 0.7 NNW 20 28 11 15 1019.5 1019.6 0.8
28/02:30am 9.9 5.7 8.3 90 0.8 NNW 20 30 11 16 1019.5 1019.6 0.8
28/02:00am 10.0 5.8 8.3 89 0.8 NW 20 30 11 16 1019.5 1019.6 0.6
28/01:30am 10.2 6.6 8.3 88 0.9 NNW 17 24 9 13 1019.4 1019.5 0.4
28/01:00am 10.4 5.5 8.5 88 0.9 NNW 24 32 13 17 1019.4 1019.5 0.4
28/12:30am 10.1 5.6 8.4 89 0.8 NNW 22 30 12 16 1019.5 1019.6 0.4
28/12:00am 9.9 5.3 8.3 90 0.8 NNW 22 32 12 17 1019.4 1019.5 0.4
 
Date/Time
EST
Temp
°C
App
Temp
°C
Dew
Point
°C
Rel
Hum
%
Delta-T
°C
Wind Press
QNH
hPa
Press
MSL
hPa
Rain since
9am
mm
Dir  Spd
km/h
Gust
km/h
Spd
kts
Gust
kts
27/11:30pm 9.7 5.1 8.1 90 0.8 NNW 22 32 12 17 1019.3 1019.4 0.4
27/11:00pm 9.8 5.6 8.1 89 0.8 NNW 20 28 11 15 1019.4 1019.5 0.4
27/10:30pm 10.2 4.5 8.5 89 0.8 NW 28 37 15 20 1019.3 1019.4 0.4
27/10:00pm 10.1 4.4 8.4 89 0.8 NW 28 39 15 21 1019.4 1019.5 0.4
27/09:30pm 10.2 4.9 8.5 89 0.8 NW 26 35 14 19 1019.3 1019.4 0.4
27/09:00pm 10.0 5.7 7.8 86 1.1 NNW 20 30 11 16 1019.3 1019.4 0.4
27/08:30pm 10.6 5.5 7.5 81 1.5 NNW 24 35 13 19 1019.1 1019.1 0.0
27/08:00pm 10.3 5.9 7.4 82 1.4 NNW 20 28 11 15 1018.9 1018.9 0.0
27/07:30pm 10.7 6.3 7.4 80 1.6 NW 20 32 11 17 1018.8 1018.8 0.0
27/07:00pm 10.6 7.0 6.6 76 1.9 NNW 15 19 8 10 1018.6 1018.6 0.0
27/06:30pm 11.9 7.5 7.4 74 2.2 NW 20 30 11 16 1018.2 1018.2 0.0
27/06:00pm 12.2 7.1 7.5 73 2.3 WNW 24 32 13 17 1018.2 1018.2 0.0
27/05:30pm 12.3 6.7 7.2 71 2.5 WNW 26 35 14 19 1017.9 1017.9 0.0
27/05:00pm 12.6 6.6 7.1 69 2.7 WNW 28 35 15 19 1017.6 1017.6 0.0
27/04:30pm 12.8 6.7 6.8 67 2.9 W 28 41 15 22 1017.6 1017.6 0.0
27/04:00pm 13.0 7.4 7.0 67 2.9 W 26 41 14 22 1017.5 1017.5 0.0
27/03:30pm 13.2 7.6 7.0 66 3.0 WNW 26 43 14 23 1017.3 1017.3 0.0
27/03:00pm 13.5 8.7 7.3 66 3.0 W 22 33 12 18 1017.2 1017.2 0.0
27/02:30pm 13.4 8.1 6.7 64 3.2 W 24 37 13 20 1017.0 1017.0 0.0
27/02:00pm 13.2 8.7 6.8 65 3.1 W 20 32 11 17 1017.0 1017.0 0.0
27/01:30pm 13.6 10.3 9.5 76 2.1 NW 17 24 9 13 1017.1 1017.1 0.0
27/01:00pm 13.5 9.6 9.6 77 2.0 NW 20 32 11 17 1017.3 1017.3 0.0
27/12:30pm 13.0 8.9 8.7 75 2.2 WNW 20 32 11 17 1017.5 1017.5 0.0
27/12:00pm 12.3 8.5 9.0 80 1.7 WNW 19 26 10 14 1017.8 1017.8 0.0
27/11:30am 12.8 9.4 9.3 79 1.8 NW 17 24 9 13 1017.9 1017.9 0.0
27/11:00am 13.1 9.7 9.2 77 2.0 WNW 17 26 9 14 1017.8 1017.8 0.0
27/10:30am 12.2 8.2 8.1 76 2.0 WNW 19 26 10 14 1017.7 1017.7 0.0
27/10:00am 12.5 8.8 7.8 73 2.3 W 17 26 9 14 1017.4 1017.4 0.0
27/09:30am 11.7 7.1 6.6 71 2.4 W 20 28 11 15 1017.1 1017.1 0.0
27/09:00am 10.3 6.8 8.9 91 0.7 WNW 17 28 9 15 1016.9 1016.9 9.8
27/08:30am 8.8 6.6 8.0 95 0.4 NW 9 15 5 8 1016.8 1016.8 9.8
27/08:00am 8.7 6.1 7.9 95 0.4 NW 11 15 6 8 1016.5 1016.5 9.8
27/07:30am 8.9 6.0 8.1 95 0.4 NNW 13 15 7 8 1016.0 1016.0 9.8
27/07:00am 9.2 5.6 8.4 95 0.4 NW 17 22 9 12 1015.9 1015.9 9.0
27/06:30am 9.0 5.4 8.2 95 0.4 NW 17 20 9 11 1015.6 1015.6 8.6
27/06:00am 9.0 5.4 8.2 95 0.4 NNW 17 24 9 13 1015.0 1015.0 8.4
27/05:30am 9.1 5.5 8.2 94 0.4 NNW 17 28 9 15 1014.8 1014.8 8.2
27/05:00am 8.9 6.0 8.0 94 0.4 NNW 13 20 7 11 1014.5 1014.5 8.2
27/04:30am 8.7 4.4 7.8 94 0.4 NW 20 30 11 16 1014.3 1014.3 8.0
27/04:00am 8.6 3.8 7.5 93 0.5 NNW 22 32 12 17 1014.3 1014.3 6.2
27/03:30am 8.5 2.6 7.4 93 0.5 NW 28 37 15 20 1014.1 1014.1 4.8
27/03:00am 8.2 3.3 7.0 92 0.6 NNW 22 33 12 18 1014.1 1014.1 3.8
27/02:30am 8.1 2.8 6.6 90 0.7 NNW 24 33 13 18 1014.0 1014.0 2.6
27/02:00am 8.4 3.0 6.4 87 0.9 NNW 24 33 13 18 1013.9 1013.9 0.6
27/01:30am 9.0 3.2 6.3 83 1.2 NNW 26 33 14 18 1013.9 1013.9 0.2
27/01:00am 9.1 3.7 6.2 82 1.3 NNW 24 32 13 17 1013.9 1013.9 0.0
27/12:30am 9.1 3.2 5.7 79 1.5 NNW 26 37 14 20 1013.9 1013.9 0.0
27/12:00am 9.4 3.4 5.4 76 1.8 NNW 26 37 14 20 1014.0 1014.0 0.0
 
Date/Time
EST
Temp
°C
App
Temp
°C
Dew
Point
°C
Rel
Hum
%
Delta-T
°C
Wind Press
QNH
hPa
Press
MSL
hPa
Rain since
9am
mm
Dir  Spd
km/h
Gust
km/h
Spd
kts
Gust
kts
26/11:30pm 9.4 3.4 5.2 75 1.9 NNW 26 37 14 20 1013.9 1013.9 0.0
26/11:00pm 9.3 2.5 5.1 75 1.9 NNW 30 41 16 22 1013.8 1013.8 0.0
26/10:30pm 9.4 2.6 5.2 75 1.9 NNW 30 44 16 24 1013.7 1013.7 0.0
26/10:00pm 9.5 3.5 5.1 74 2.0 NNW 26 39 14 21 1013.9 1013.9 0.0
26/09:30pm 9.8 3.8 5.2 73 2.1 NNW 26 35 14 19 1013.9 1013.9 0.0
26/09:00pm 9.7 3.3 5.1 73 2.1 NNW 28 43 15 23 1014.0 1014.0 0.0
26/08:30pm 9.5 2.7 4.9 73 2.1 NNW 30 41 16 22 1014.0 1014.0 0.0
26/08:00pm 9.8 2.9 4.8 71 2.2 NNW 30 43 16 23 1014.1 1014.1 0.0
26/07:30pm 9.9 3.8 4.9 71 2.3 NNW 26 37 14 20 1014.1 1014.1 0.0
26/07:00pm 9.8 4.5 4.8 71 2.2 NNW 22 32 12 17 1014.2 1014.2 0.0
26/06:30pm 9.9 5.0 4.9 71 2.3 NNW 20 32 11 17 1014.1 1014.1 0.0
26/06:00pm 10.1 4.8 4.9 70 2.3 NNW 22 30 12 16 1013.9 1013.9 0.0
26/05:30pm 10.2 4.9 4.8 69 2.4 NNW 22 37 12 20 1013.9 1013.9 0.0
26/05:00pm 10.4 5.0 4.5 67 2.6 NNW 22 32 12 17 1013.8 1013.8 0.0
26/04:30pm 10.8 5.1 4.7 66 2.8 NNW 24 33 13 18 1013.7 1013.7 0.0
26/04:00pm 11.0 4.8 4.2 63 3.0 NNW 26 39 14 21 1013.6 1013.6 0.0
26/03:30pm 11.6 5.4 4.3 61 3.3 NNW 26 44 14 24 1013.7 1013.7 0.0
26/03:00pm 12.0 4.6 4.2 59 3.5 NNW 32 44 17 24 1013.7 1013.7 0.0
26/02:30pm 12.4 5.9 4.6 59 3.6 NNW 28 37 15 20 1014.0 1014.0 0.0
26/02:11pm 12.4 5.8 4.1 57 3.8 NNW 28 48 15 26 1014.1 1014.1 0.0
26/02:00pm 13.0 7.0 5.2 59 3.6 NNW 26 37 14 20 1014.3 1014.3 0.0
26/01:30pm 12.8 6.4 5.0 59 3.6 NNW 28 39 15 21 1014.6 1014.6 0.0
26/01:00pm 12.2 6.5 5.1 62 3.3 NNW 24 37 13 20 1015.1 1015.1 0.0
26/12:30pm 12.5 6.8 5.0 60 3.5 NNW 24 35 13 19 1015.3 1015.3 0.0
26/12:00pm 11.7 5.1 4.4 61 3.3 NNW 28 37 15 20 1015.6 1015.6 0.0

Other Formats:

Comma delimited format used in spreadsheet applications
http://www.bom.gov.au/fwo/IDV60801/IDV60801.94826.axf

JavaScript Object Notation format (JSON) in row-major order
http://www.bom.gov.au/fwo/IDV60801/IDV60801.94826.json